Aérodrome :
LOGIN :

S'inscrire | Disclaimer

   EN    FR    IT 

 










Légende :    VFR   VFR Marginal   IFR   IFR Intensif   IFR Très Intensif
Visi : 
Plafond : 
>= 8 km
>= 3000ft
5 à 8 km
1000 à 3000 ft
1500m à 5 km
500 à 1000 ft
800 à 1500m
200 à 500 ft
< 800m
< 200 ft
Symboles :   Orages  Brouillard  Fortes neiges  Fortes précipitations  Vent > 20 kt
SIGMETs :   Divers  Orages  Givrage  Turbulence  Onde Orograph.  Cendres Volcan.







- Altitude de l'aérodrome : 1325 ft
- Code IATA : EBU
- Voir les cartes d'approche


LFMH - St-Etienne Boutheon

DERNIER METAR :
  • 221800Z AUTO 32010KT 280V350 9999 SCT041 BKN054 OVC070 12/06 Q1019 TEMPO 29018G28KT

METARs EXPIRÉS :
  • 221730Z AUTO 31009KT 280V350 9999 FEW042 SCT049 BKN056 12/06 Q1019 TEMPO 29018G28KT
  • 221700Z AUTO 34008KT 300V010 9999 BKN046 OVC054 13/06 Q1018 TEMPO 29018G28KT
  • 221630Z AUTO 33008KT 300V010 9999 FEW047/// BKN060/// BKN070/// ///TCU 13/06 Q1018 TEMPO OVC030
  • 221600Z AUTO 29018G28KT 230V320 9999 SCT041/// BKN047/// OVC058/// ///TCU 14/05 Q1017 TEMPO OVC030 BECMG 33006KT
  • 221530Z AUTO 28007KT 9999 OVC052 15/06 Q1016 NOSIG

TAF AMD TAF LFMH
Valide du 22 à 16h jusqu'au 23 à 15h UTC


221629Z 2216/2315 24008KT 9999 BKN038
TEMPO 2216/2219 29018G28KT -RA OVC030
BECMG 2216/2217 33006KT
TEMPO 2223/2306 OVC010
ATIS : +33 4 77 36 17 51
Pas de NOTAMs connus pour ce terrain.
6 SIGMETs publiés pour la FIR Marseille (LFMM) :
 
Onde orographique forte
LFMM SIGMET 18 VALID 221800/222100 LFPW
LFMM MARSEILLE FIR/UIR SEV MTW FCST WI N4545 E00700 - N4400 E00700 - N4330 E00645 - N4415 E00530 - N4545 E00700 SFC/FL220 STNR NC=
Onde orographique forte
LFMM SIGMET 17 VALID 221800/222100 LFPW
LFMM MARSEILLE FIR/UIR SEV MTW FCST WI N4215 E00230 - N4330 E00245 - N4500 E00415 - N4430 E00515 - N4215 E00230 SFC/FL280 STNR NC=
Turbulence forte
LFMM SIGMET 16 VALID 221800/222100 LFPW
LFMM MARSEILLE FIR/UIR SEV TURB FCST WI N4500 E00700 - N4400 E00700 - N4315 E00945 - N4115 E00945 - N4115 E00800 - N4015 E00800 - N4315 E00515 - N4500 E00700 SFC/FL080 STNR NC=
Turbulence forte
LFMM SIGMET 15 VALID 221800/222100 LFPW
LFMM MARSEILLE FIR/UIR SEV TURB FCST WI N4200 E00430 - N4215 E00230 - N4545 E00300 - N4545 E00400 - N4215 E00530 - N4200 E00430 SFC/FL080 STNR NC=
Turbulence forte
LFMM SIGMET 13 VALID 221500/221800 LFPW
LFMM MARSEILLE FIR/UIR SEV TURB FCST WI N4615 E00700 - N4400 E00700 - N4315 E00630 - N4330 E00530 - N4615 E00700 SFC/FL120 STNR NC=
Turbulence forte
LFMM SIGMET 12 VALID 221500/221800 LFPW
LFMM MARSEILLE FIR/UIR SEV TURB FCST WI N4100 E00430 - N4200 E00430 - N4215 E00230 - N4630 E00300 - N4545 E00430 - N4100 E00745 - N4015 E00630 - N4100 E00430 SFC/FL080 STNR NC=



MET'MAP, la Météo Aéronautique d'un coup d'oeil ! - Copyright ORBIFLY Décembre 2007 - Disclaimer

ORBIFLY MET'MAP TEAM :

Programmation & Développement : Alexandra Zaïnal
Conception & Développement : Baudouin d'Aumeries
Co-Programmation & Développement : Marc-Olivier Méhu
Soutien technique & logistique : Manuel Goepfert

Contact : metmap@orbifly.com




SOURCES & CREDITS :

   NOAA